createdAt,value
2023-05-14T00:01:20.888Z,7.18
2023-05-14T00:04:13.821Z,11.20
2023-05-14T00:07:06.857Z,7.90
2023-05-14T00:10:00.350Z,8.52
2023-05-14T00:12:52.766Z,8.68
2023-05-14T00:15:46.218Z,7.10
2023-05-14T00:18:40.207Z,9.07
2023-05-14T00:21:33.506Z,6.03
2023-05-14T00:24:26.690Z,5.22
2023-05-14T00:27:19.812Z,9.13
2023-05-14T00:30:13.268Z,7.13
2023-05-14T00:36:19.408Z,8.18
2023-05-14T00:39:12.416Z,9.07
2023-05-14T00:42:05.116Z,8.63
2023-05-14T00:44:57.630Z,9.18
2023-05-14T00:47:51.090Z,9.57
2023-05-14T00:53:57.422Z,7.93
2023-05-14T00:56:49.637Z,9.25
2023-05-14T00:59:43.747Z,11.82
2023-05-14T01:02:36.497Z,11.88
2023-05-14T01:05:35.607Z,12.93
2023-05-14T01:08:33.730Z,11.77
2023-05-14T01:11:31.280Z,8.90
2023-05-14T01:14:52.102Z,15.80
2023-05-14T01:17:48.026Z,7.50
2023-05-14T01:20:40.777Z,8.90
2023-05-14T01:23:34.922Z,14.13
2023-05-14T01:26:27.955Z,12.38
2023-05-14T01:29:23.511Z,9.43
2023-05-14T01:32:16.739Z,8.20
2023-05-14T01:35:10.571Z,7.70
2023-05-14T01:38:07.856Z,8.52
2023-05-14T01:44:15.086Z,11.80
2023-05-14T01:50:24.261Z,15.60
2023-05-14T01:53:17.035Z,17.05
2023-05-14T01:56:09.690Z,17.48
2023-05-14T01:59:02.738Z,17.95
2023-05-14T02:01:57.208Z,20.80
2023-05-14T02:04:50.414Z,16.30
2023-05-14T02:08:12.077Z,19.92
2023-05-14T02:11:04.821Z,16.27
2023-05-14T02:13:57.783Z,18.25
2023-05-14T02:16:51.228Z,21.50
2023-05-14T02:19:45.095Z,20.20
2023-05-14T02:22:38.457Z,14.50
2023-05-14T02:25:30.415Z,16.65
2023-05-14T02:28:22.771Z,15.07
2023-05-14T02:31:17.582Z,13.65
2023-05-14T02:34:10.902Z,16.67
2023-05-14T02:37:05.125Z,8.93
2023-05-14T02:39:57.645Z,12.80
2023-05-14T02:46:19.848Z,11.10
2023-05-14T02:49:49.968Z,12.10
2023-05-14T02:52:44.004Z,13.93
2023-05-14T02:55:37.289Z,21.20
2023-05-14T02:58:32.241Z,22.08
2023-05-14T03:04:46.637Z,17.88
2023-05-14T03:07:39.801Z,22.42
2023-05-14T03:10:33.996Z,18.88
2023-05-14T03:16:39.962Z,13.55
2023-05-14T03:19:32.929Z,20.38
2023-05-14T03:25:39.436Z,14.32
2023-05-14T03:28:31.664Z,13.68
2023-05-14T03:31:25.890Z,19.45
2023-05-14T03:34:18.915Z,18.55
2023-05-14T03:37:12.161Z,17.42
2023-05-14T03:40:05.427Z,16.55
2023-05-14T03:42:58.856Z,20.33
2023-05-14T03:45:52.519Z,21.42
2023-05-14T03:49:11.244Z,23.55
2023-05-14T03:52:03.998Z,23.38
2023-05-14T03:54:57.020Z,24.23
2023-05-14T03:57:49.871Z,29.17
2023-05-14T04:00:44.495Z,26.92
2023-05-14T04:03:37.018Z,29.42
2023-05-14T04:06:29.810Z,28.50
2023-05-14T04:09:23.303Z,27.20
2023-05-14T04:12:16.790Z,23.08
2023-05-14T04:15:10.690Z,24.58
2023-05-14T04:18:05.377Z,35.90
2023-05-14T04:20:58.854Z,33.15
2023-05-14T04:23:51.962Z,29.83
2023-05-14T04:26:44.995Z,25.63
2023-05-14T04:29:37.949Z,27.55
2023-05-14T04:32:31.071Z,25.45
2023-05-14T04:35:26.888Z,27.42
2023-05-14T04:41:12.844Z,29.30
2023-05-14T04:47:16.639Z,34.83
2023-05-14T04:53:27.412Z,29.83
2023-05-14T04:56:20.721Z,33.63
2023-05-14T04:59:13.958Z,30.85
2023-05-14T05:05:25.783Z,22.17
2023-05-14T05:08:19.036Z,17.20
2023-05-14T05:11:15.702Z,11.63
2023-05-14T05:14:09.034Z,11.13
2023-05-14T05:17:01.566Z,6.28
2023-05-14T05:19:53.906Z,6.22
2023-05-14T05:22:46.840Z,5.60
2023-05-14T05:25:39.891Z,3.58
2023-05-14T05:31:45.402Z,4.43
2023-05-14T05:34:37.518Z,6.82
2023-05-14T05:37:29.473Z,5.90
2023-05-14T05:40:21.734Z,7.35
2023-05-14T05:43:16.004Z,6.85
2023-05-14T05:46:08.770Z,6.68
2023-05-14T05:49:02.820Z,4.68
2023-05-14T05:55:00.910Z,5.80
2023-05-14T06:01:11.085Z,5.68
2023-05-14T06:07:21.392Z,4.43
2023-05-14T06:10:13.923Z,6.90
2023-05-14T06:16:52.523Z,7.07
2023-05-14T06:19:44.816Z,4.53
2023-05-14T06:22:39.060Z,5.20
2023-05-14T06:25:31.644Z,10.77
2023-05-14T06:28:25.137Z,5.43
2023-05-14T06:31:17.947Z,6.28
2023-05-14T06:34:35.846Z,4.10
2023-05-14T06:37:28.752Z,5.32
2023-05-14T06:43:35.534Z,5.88
2023-05-14T06:46:27.656Z,5.47
2023-05-14T06:49:21.103Z,5.90
2023-05-14T06:52:13.686Z,3.55
2023-05-14T06:55:07.594Z,4.97
2023-05-14T06:57:59.618Z,4.25
2023-05-14T07:00:53.081Z,4.28
2023-05-14T07:06:59.074Z,3.85
2023-05-14T07:09:52.040Z,3.95
2023-05-14T07:12:45.109Z,3.90
2023-05-14T07:15:39.441Z,3.08
2023-05-14T07:18:32.763Z,5.25
2023-05-14T07:21:26.069Z,3.08
2023-05-14T07:24:16.935Z,4.15
2023-05-14T07:27:12.489Z,4.20
2023-05-14T07:30:05.311Z,5.20
2023-05-14T07:32:57.744Z,5.05
2023-05-14T07:39:04.554Z,4.55
2023-05-14T07:45:10.508Z,3.53
2023-05-14T07:51:19.167Z,4.82
2023-05-14T07:54:13.307Z,4.50
2023-05-14T07:56:59.360Z,3.00
2023-05-14T07:59:52.002Z,4.93
2023-05-14T08:02:44.940Z,3.97
2023-05-14T08:05:37.918Z,2.80
2023-05-14T08:08:30.584Z,3.13
2023-05-14T08:11:24.059Z,3.10
2023-05-14T08:14:16.972Z,3.95
2023-05-14T08:17:10.005Z,3.85
2023-05-14T08:20:02.933Z,3.90
2023-05-14T08:22:56.875Z,3.63
2023-05-14T08:25:49.825Z,2.58
2023-05-14T08:28:44.495Z,3.53
2023-05-14T08:31:37.133Z,3.10
2023-05-14T08:34:29.734Z,5.85
2023-05-14T08:37:22.670Z,2.78
2023-05-14T08:40:15.661Z,4.60
2023-05-14T08:43:12.785Z,3.05
2023-05-14T08:46:07.690Z,3.92
2023-05-14T08:49:08.752Z,3.17
2023-05-14T08:55:23.496Z,3.10
2023-05-14T08:58:16.121Z,3.80
2023-05-14T09:01:09.851Z,12.75
2023-05-14T09:07:15.815Z,4.28
2023-05-14T09:10:10.114Z,3.10
2023-05-14T09:16:17.844Z,3.47
2023-05-14T09:19:11.343Z,2.22
2023-05-14T09:22:09.559Z,2.10
2023-05-14T09:25:09.183Z,2.58
2023-05-14T09:28:06.806Z,3.15
2023-05-14T09:30:59.536Z,2.97
2023-05-14T09:33:53.878Z,1.85
2023-05-14T09:36:51.244Z,1.75
2023-05-14T09:39:43.919Z,1.88
2023-05-14T09:45:49.498Z,2.53
2023-05-14T09:48:41.858Z,1.73
2023-05-14T09:51:38.085Z,1.83
2023-05-14T09:57:52.079Z,2.90
2023-05-14T10:04:31.034Z,2.38
2023-05-14T10:07:28.481Z,2.03
2023-05-14T10:10:22.093Z,2.15
2023-05-14T10:16:38.878Z,3.08
2023-05-14T10:19:34.132Z,2.42
2023-05-14T10:25:39.170Z,2.20
2023-05-14T10:31:49.601Z,2.03
2023-05-14T10:37:58.156Z,4.25
2023-05-14T10:40:54.077Z,2.30
2023-05-14T10:43:46.806Z,2.05
2023-05-14T10:46:34.767Z,3.33
2023-05-14T10:49:42.468Z,3.78
2023-05-14T10:52:36.253Z,1.48
2023-05-14T10:55:28.677Z,2.33
2023-05-14T10:58:22.375Z,2.00
2023-05-14T11:01:15.282Z,1.60
2023-05-14T11:04:09.117Z,1.85
2023-05-14T11:07:08.637Z,1.85
2023-05-14T11:10:03.330Z,3.25
2023-05-14T11:12:57.073Z,1.48
2023-05-14T11:15:51.566Z,1.67
2023-05-14T11:18:44.111Z,1.88
2023-05-14T11:21:36.918Z,1.90
2023-05-14T11:24:29.549Z,1.95
2023-05-14T11:27:23.257Z,3.15
2023-05-14T11:30:17.176Z,4.20
2023-05-14T11:33:11.492Z,3.25
2023-05-14T11:36:04.177Z,1.90
2023-05-14T11:42:14.623Z,1.10
2023-05-14T11:48:24.951Z,2.58
2023-05-14T11:51:18.267Z,1.38
2023-05-14T11:54:11.090Z,1.98
2023-05-14T11:57:04.657Z,3.30
2023-05-14T11:59:58.211Z,1.75
2023-05-14T12:02:51.133Z,3.17
2023-05-14T12:05:57.561Z,2.05
2023-05-14T12:08:50.149Z,1.60
2023-05-14T12:11:42.948Z,1.20
2023-05-14T12:14:40.048Z,2.92
2023-05-14T12:17:33.686Z,1.52
2023-05-14T12:24:13.698Z,1.33
2023-05-14T12:27:06.545Z,1.10
2023-05-14T12:30:18.996Z,1.10
2023-05-14T12:33:13.294Z,1.38
2023-05-14T12:36:20.692Z,2.45
2023-05-14T12:39:16.182Z,3.70
2023-05-14T12:42:09.100Z,2.63
2023-05-14T12:45:05.309Z,1.52
2023-05-14T12:47:57.730Z,1.75
2023-05-14T12:50:51.029Z,2.35
2023-05-14T12:53:44.128Z,2.72
2023-05-14T12:56:39.039Z,1.38
2023-05-14T12:59:31.617Z,2.05
2023-05-14T13:02:23.765Z,2.47
2023-05-14T13:05:17.253Z,2.70
2023-05-14T13:08:10.368Z,3.50
2023-05-14T13:11:02.885Z,2.05
2023-05-14T13:13:56.872Z,2.17
2023-05-14T13:16:53.602Z,1.90
2023-05-14T13:19:45.866Z,1.63
2023-05-14T13:22:39.165Z,1.52
2023-05-14T13:25:31.643Z,1.30
2023-05-14T13:28:24.203Z,4.03
2023-05-14T13:31:18.310Z,1.65
2023-05-14T13:34:25.076Z,2.50
2023-05-14T13:37:19.714Z,1.00
2023-05-14T13:43:34.203Z,1.65
2023-05-14T13:49:54.035Z,1.23
2023-05-14T13:52:46.739Z,0.97
2023-05-14T13:55:38.786Z,2.05
2023-05-14T14:01:44.209Z,1.88
2023-05-14T14:08:00.972Z,2.30
2023-05-14T14:11:01.148Z,2.90
2023-05-14T14:13:53.900Z,1.08
2023-05-14T14:16:47.081Z,1.27
2023-05-14T14:19:40.723Z,1.27
2023-05-14T14:25:49.106Z,1.58
2023-05-14T14:31:58.278Z,4.07
2023-05-14T14:38:07.188Z,2.78
2023-05-14T14:44:17.538Z,1.67
2023-05-14T14:47:09.757Z,2.00
2023-05-14T14:50:01.887Z,2.10
2023-05-14T14:52:55.151Z,2.65
2023-05-14T14:55:48.360Z,2.17
2023-05-14T14:58:40.782Z,4.20
2023-05-14T15:01:35.300Z,2.63
2023-05-14T15:04:29.812Z,2.58
2023-05-14T15:07:22.893Z,2.13
2023-05-14T15:10:16.217Z,1.60
2023-05-14T15:16:25.306Z,3.78
2023-05-14T15:22:30.283Z,3.78
2023-05-14T15:25:24.409Z,2.63
2023-05-14T15:28:23.407Z,2.67
2023-05-14T15:31:16.706Z,1.83
2023-05-14T15:34:10.286Z,1.90
2023-05-14T15:37:04.214Z,2.67
2023-05-14T15:39:56.852Z,2.30
2023-05-14T15:42:49.772Z,2.38
2023-05-14T15:45:42.101Z,4.70
2023-05-14T15:48:35.849Z,2.30
2023-05-14T15:51:29.056Z,1.85
2023-05-14T15:54:23.368Z,3.40
2023-05-14T15:57:40.750Z,3.10
2023-05-14T16:00:33.161Z,3.50
2023-05-14T16:06:20.131Z,2.50
2023-05-14T16:12:23.567Z,4.22
2023-05-14T16:18:32.143Z,4.90
2023-05-14T16:21:26.308Z,2.15
2023-05-14T16:24:19.423Z,2.15
2023-05-14T16:27:11.434Z,2.63
2023-05-14T16:30:04.347Z,2.85
2023-05-14T16:32:56.913Z,2.92
2023-05-14T16:35:50.417Z,3.25
2023-05-14T16:38:57.165Z,3.67
2023-05-14T16:41:56.593Z,3.75
2023-05-14T16:44:49.033Z,2.75
2023-05-14T16:47:41.630Z,3.20
2023-05-14T16:50:34.968Z,3.15
2023-05-14T16:56:41.851Z,3.50
2023-05-14T17:02:48.943Z,4.75
2023-05-14T17:05:41.766Z,3.10
2023-05-14T17:08:35.671Z,3.20
2023-05-14T17:11:29.049Z,3.25
2023-05-14T17:14:23.336Z,4.18
2023-05-14T17:17:15.645Z,2.67
2023-05-14T17:20:05.571Z,5.43
2023-05-14T17:22:58.699Z,4.50
2023-05-14T17:25:51.951Z,5.25
2023-05-14T17:28:44.762Z,3.38
2023-05-14T17:31:39.285Z,5.88
2023-05-14T17:34:31.588Z,3.42
2023-05-14T17:37:25.183Z,5.32
2023-05-14T17:43:38.880Z,4.15
2023-05-14T17:46:33.513Z,4.28
2023-05-14T17:49:27.151Z,3.92
2023-05-14T17:52:20.071Z,3.53
2023-05-14T17:55:12.880Z,4.00
2023-05-14T17:58:05.696Z,3.92
2023-05-14T18:00:58.465Z,4.10
2023-05-14T18:03:57.824Z,6.13
2023-05-14T18:06:53.101Z,5.53
2023-05-14T18:09:45.912Z,4.50
2023-05-14T18:12:39.067Z,8.38
2023-05-14T18:15:32.155Z,4.85
2023-05-14T18:18:24.531Z,4.65
2023-05-14T18:21:16.818Z,4.70
2023-05-14T18:27:23.452Z,4.03
2023-05-14T18:33:33.510Z,4.15
2023-05-14T18:36:25.905Z,6.25
2023-05-14T18:39:15.849Z,4.88
2023-05-14T18:42:09.810Z,5.63
2023-05-14T18:45:04.379Z,7.28
2023-05-14T18:47:57.235Z,8.88
2023-05-14T18:54:10.818Z,6.53
2023-05-14T18:57:03.955Z,7.82
2023-05-14T18:59:56.890Z,6.05
2023-05-14T19:03:07.030Z,5.30
2023-05-14T19:05:58.159Z,5.20
2023-05-14T19:08:51.635Z,4.90
2023-05-14T19:15:07.212Z,6.53
2023-05-14T19:17:59.903Z,6.00
2023-05-14T19:20:53.566Z,4.00
2023-05-14T19:23:48.074Z,6.30
2023-05-14T19:26:40.459Z,4.63
2023-05-14T19:29:33.667Z,6.72
2023-05-14T19:32:26.940Z,9.00
2023-05-14T19:35:19.736Z,5.43
2023-05-14T19:38:13.492Z,4.72
2023-05-14T19:41:06.849Z,8.75
2023-05-14T19:43:59.557Z,7.63
2023-05-14T19:46:51.838Z,4.85
2023-05-14T19:49:44.964Z,5.88
2023-05-14T19:52:37.803Z,4.00
2023-05-14T19:55:31.227Z,5.50
2023-05-14T19:58:25.398Z,4.75
2023-05-14T20:04:39.920Z,5.45
2023-05-14T20:07:33.279Z,5.15
2023-05-14T20:10:26.091Z,5.50
2023-05-14T20:13:19.085Z,6.32
2023-05-14T20:16:13.511Z,5.40
2023-05-14T20:19:05.767Z,5.47
2023-05-14T20:25:10.500Z,5.03
2023-05-14T20:28:02.671Z,5.78
2023-05-14T20:30:58.563Z,11.05
2023-05-14T20:33:52.034Z,8.07
2023-05-14T20:37:22.038Z,5.78
2023-05-14T20:40:15.002Z,5.93
2023-05-14T20:43:08.004Z,6.43
2023-05-14T20:46:01.324Z,6.90
2023-05-14T20:52:16.255Z,8.38
2023-05-14T20:55:09.654Z,7.07
2023-05-14T20:58:01.690Z,6.65
2023-05-14T21:04:07.881Z,5.40
2023-05-14T21:07:02.546Z,6.63
2023-05-14T21:13:08.071Z,8.80
2023-05-14T21:16:00.784Z,6.80
2023-05-14T21:18:53.922Z,8.52
2023-05-14T21:21:47.313Z,6.40
2023-05-14T21:27:52.055Z,8.15
2023-05-14T21:30:46.401Z,6.07
2023-05-14T21:33:40.651Z,7.13
2023-05-14T21:36:33.726Z,7.55
2023-05-14T21:39:26.909Z,7.18
2023-05-14T21:42:20.907Z,7.05
2023-05-14T21:48:27.532Z,10.82
2023-05-14T21:51:20.006Z,8.52
2023-05-14T21:54:13.933Z,7.90
2023-05-14T21:57:06.868Z,6.22
2023-05-14T21:59:59.902Z,9.85
2023-05-14T22:02:53.675Z,9.55
2023-05-14T22:05:49.069Z,12.10
2023-05-14T22:08:42.230Z,6.70
2023-05-14T22:11:35.160Z,6.03
2023-05-14T22:14:27.861Z,6.63
2023-05-14T22:17:21.674Z,5.85
2023-05-14T22:20:15.076Z,7.22
2023-05-14T22:23:09.132Z,9.85
2023-05-14T22:26:01.497Z,7.63
2023-05-14T22:28:53.815Z,8.57
2023-05-14T22:31:46.879Z,9.23
2023-05-14T22:34:39.671Z,8.43
2023-05-14T22:37:32.697Z,7.05
2023-05-14T22:40:27.188Z,10.88
2023-05-14T22:43:19.985Z,6.10
2023-05-14T22:46:13.309Z,8.52
2023-05-14T22:49:05.837Z,7.13
2023-05-14T22:51:58.829Z,10.65
2023-05-14T22:54:52.066Z,11.82
2023-05-14T22:57:46.195Z,11.43
2023-05-14T23:00:38.716Z,14.05
2023-05-14T23:06:46.236Z,13.35
2023-05-14T23:12:57.473Z,13.85
2023-05-14T23:19:06.338Z,17.60
2023-05-14T23:25:15.305Z,18.60
2023-05-14T23:28:09.486Z,19.88
2023-05-14T23:31:00.860Z,27.15
2023-05-14T23:33:54.090Z,24.50
2023-05-14T23:36:40.756Z,24.67
2023-05-14T23:39:26.848Z,18.75
2023-05-14T23:42:12.879Z,16.92
2023-05-14T23:48:12.475Z,16.52
2023-05-14T23:50:58.569Z,16.73
2023-05-14T23:53:56.155Z,16.75
2023-05-14T23:56:42.157Z,20.58
2023-05-14T23:59:28.292Z,23.92
